createdAt,value
2022-08-20T00:01:02.399Z,100663.13
2022-08-20T00:03:32.720Z,100668.16
2022-08-20T00:06:04.094Z,100668.16
2022-08-20T00:08:30.493Z,100659.72
2022-08-20T00:10:56.849Z,100651.28
2022-08-20T00:13:24.448Z,100650.69
2022-08-20T00:15:50.694Z,100652.72
2022-08-20T00:18:16.931Z,100638.66
2022-08-20T00:20:44.178Z,100645.97
2022-08-20T00:23:10.798Z,100658.47
2022-08-20T00:25:37.044Z,100679.06
2022-08-20T00:28:03.419Z,100686.84
2022-08-20T00:30:29.836Z,100689.81
2022-08-20T00:32:57.068Z,100688.88
2022-08-20T00:35:24.705Z,100693.72
2022-08-20T00:37:50.942Z,100687.78
2022-08-20T00:40:22.913Z,100689.19
2022-08-20T00:42:53.043Z,100685.28
2022-08-20T00:45:19.496Z,100685.94
2022-08-20T00:47:51.182Z,100689.63
2022-08-20T00:50:19.010Z,100694.16
2022-08-20T00:52:49.377Z,100686.69
2022-08-20T00:55:16.812Z,100682.91
2022-08-20T00:57:59.945Z,100679.94
2022-08-20T01:00:35.696Z,100680.25
2022-08-20T01:03:01.941Z,100674.66
2022-08-20T01:05:29.914Z,100678.25
2022-08-20T01:07:56.447Z,100685.09
2022-08-20T01:10:26.833Z,100679.34
2022-08-20T01:12:55.659Z,100675.31
2022-08-20T01:15:30.680Z,100658.94
2022-08-20T01:17:57.840Z,100650.84
2022-08-20T01:20:27.191Z,100638.34
2022-08-20T01:22:55.494Z,100636.16
2022-08-20T01:25:41.380Z,100636.16
2022-08-20T01:28:07.611Z,100634.28
2022-08-20T01:30:33.901Z,100636.94
2022-08-20T01:33:00.134Z,100645.03
2022-08-20T01:35:26.374Z,100641.75
2022-08-20T01:37:52.678Z,100649.88
2022-08-20T01:40:25.393Z,100653.94
2022-08-20T01:42:59.189Z,100653.47
2022-08-20T01:45:26.973Z,100653.75
2022-08-20T01:47:54.228Z,100640.97
2022-08-20T01:50:21.784Z,100639.72
2022-08-20T01:52:59.077Z,100633.50
2022-08-20T01:55:25.335Z,100629.13
2022-08-20T01:57:52.120Z,100629.47
2022-08-20T02:00:19.769Z,100636.34
2022-08-20T02:02:46.531Z,100633.81
2022-08-20T02:05:12.777Z,100643.38
2022-08-20T02:07:39.018Z,100633.03
2022-08-20T02:10:06.108Z,100628.81
2022-08-20T02:12:32.427Z,100638.19
2022-08-20T02:14:58.663Z,100643.16
2022-08-20T02:17:25.071Z,100632.41
2022-08-20T02:20:10.473Z,100629.75
2022-08-20T02:22:49.950Z,100635.84
2022-08-20T02:25:16.710Z,100638.50
2022-08-20T02:27:43.728Z,100638.19
2022-08-20T02:30:11.985Z,100640.72
2022-08-20T02:32:56.368Z,100635.41
2022-08-20T02:35:23.021Z,100636.31
2022-08-20T02:37:49.593Z,100646.59
2022-08-20T02:40:17.311Z,100657.38
2022-08-20T02:42:53.296Z,100662.06
2022-08-20T02:45:19.541Z,100660.97
2022-08-20T02:47:45.810Z,100654.56
2022-08-20T02:50:12.673Z,100658.00
2022-08-20T02:52:38.912Z,100659.09
2022-08-20T02:55:25.921Z,100666.28
2022-08-20T02:57:55.097Z,100663.91
2022-08-20T03:00:24.930Z,100673.44
2022-08-20T03:02:51.175Z,100678.25
2022-08-20T03:05:17.413Z,100681.78
2022-08-20T03:07:44.496Z,100687.72
2022-08-20T03:10:10.742Z,100704.72
2022-08-20T03:12:36.968Z,100707.41
2022-08-20T03:15:03.293Z,100689.16
2022-08-20T03:17:29.521Z,100680.28
2022-08-20T03:19:55.763Z,100668.28
2022-08-20T03:22:22.020Z,100660.63
2022-08-20T03:24:48.269Z,100669.66
2022-08-20T03:27:14.491Z,100670.41
2022-08-20T03:29:40.730Z,100679.81
2022-08-20T03:32:07.903Z,100673.09
2022-08-20T03:34:34.205Z,100670.28
2022-08-20T03:37:00.442Z,100675.59
2022-08-20T03:39:26.681Z,100673.72
2022-08-20T03:41:52.925Z,100668.72
2022-08-20T03:44:19.164Z,100664.81
2022-08-20T03:46:45.412Z,100665.47
2022-08-20T03:49:11.636Z,100678.09
2022-08-20T03:51:57.108Z,100675.59
2022-08-20T03:54:24.096Z,100693.06
2022-08-20T03:56:57.852Z,100698.66
2022-08-20T03:59:24.135Z,100715.78
2022-08-20T04:01:50.409Z,100733.22
2022-08-20T04:04:16.694Z,100745.25
2022-08-20T04:06:43.045Z,100754.38
2022-08-20T04:09:11.870Z,100769.81
2022-08-20T04:11:38.636Z,100779.94
2022-08-20T04:14:04.913Z,100778.06
2022-08-20T04:16:31.186Z,100782.75
2022-08-20T04:19:02.460Z,100784.88
2022-08-20T04:21:32.717Z,100779.66
2022-08-20T04:23:59.766Z,100770.47
2022-08-20T04:26:26.012Z,100768.47
2022-08-20T04:28:52.249Z,100761.63
2022-08-20T04:31:21.995Z,100767.69
2022-08-20T04:33:50.748Z,100766.41
2022-08-20T04:36:16.979Z,100785.41
2022-08-20T04:38:47.790Z,100793.81
2022-08-20T04:41:22.561Z,100821.81
2022-08-20T04:43:50.002Z,100828.69
2022-08-20T04:46:16.243Z,100825.06
2022-08-20T04:48:42.472Z,100827.28
2022-08-20T04:51:15.464Z,100810.25
2022-08-20T04:53:41.772Z,100825.44
2022-08-20T04:56:08.039Z,100813.22
2022-08-20T04:58:34.683Z,100803.09
2022-08-20T05:01:01.925Z,100801.47
2022-08-20T05:03:28.212Z,100781.88
2022-08-20T05:05:54.445Z,100761.44
2022-08-20T05:08:20.911Z,100753.63
2022-08-20T05:10:47.153Z,100763.09
2022-08-20T05:13:13.398Z,100768.50
2022-08-20T05:15:39.628Z,100784.34
2022-08-20T05:18:06.206Z,100803.09
2022-08-20T05:20:32.668Z,100805.38
2022-08-20T05:22:59.089Z,100804.41
2022-08-20T05:25:25.325Z,100806.28
2022-08-20T05:27:55.379Z,100812.97
2022-08-20T05:30:21.603Z,100827.06
2022-08-20T05:32:48.660Z,100816.91
2022-08-20T05:35:14.888Z,100820.53
2022-08-20T05:37:41.129Z,100824.16
2022-08-20T05:40:08.669Z,100819.97
2022-08-20T05:42:34.953Z,100819.66
2022-08-20T05:45:01.188Z,100802.22
2022-08-20T05:47:28.422Z,100795.84
2022-08-20T05:49:54.670Z,100806.00
2022-08-20T05:52:26.253Z,100804.44
2022-08-20T05:54:52.493Z,100806.06
2022-08-20T05:57:18.830Z,100827.28
2022-08-20T05:59:45.126Z,100804.16
2022-08-20T06:02:11.384Z,100762.44
2022-08-20T06:04:37.622Z,100716.50
2022-08-20T06:07:04.869Z,100688.31
2022-08-20T06:09:32.628Z,100722.16
2022-08-20T06:12:02.469Z,100749.66
2022-08-20T06:14:28.714Z,100781.50
2022-08-20T06:16:57.973Z,100808.34
2022-08-20T06:19:26.178Z,100822.59
2022-08-20T06:21:52.750Z,100816.19
2022-08-20T06:24:20.048Z,100818.53
2022-08-20T06:26:46.309Z,100828.34
2022-08-20T06:29:12.536Z,100837.50
2022-08-20T06:31:38.769Z,100857.13
2022-08-20T06:34:05.080Z,100878.03
2022-08-20T06:36:31.305Z,100880.69
2022-08-20T06:38:57.536Z,100890.22
2022-08-20T06:41:23.900Z,100895.91
2022-08-20T06:44:02.639Z,100896.59
2022-08-20T06:46:28.874Z,100898.03
2022-08-20T06:48:55.112Z,100881.53
2022-08-20T06:51:21.352Z,100887.94
2022-08-20T06:53:47.596Z,100880.06
2022-08-20T06:56:13.825Z,100877.13
2022-08-20T06:58:40.069Z,100873.09
2022-08-20T07:01:10.966Z,100864.50
2022-08-20T07:03:38.469Z,100856.84
2022-08-20T07:06:04.831Z,100860.75
2022-08-20T07:08:31.085Z,100862.00
2022-08-20T07:10:57.338Z,100845.59
2022-08-20T07:13:23.579Z,100850.25
2022-08-20T07:15:53.100Z,100863.69
2022-08-20T07:18:28.220Z,100873.53
2022-08-20T07:20:55.304Z,100881.38
2022-08-20T07:23:21.552Z,100875.28
2022-08-20T07:25:47.784Z,100889.66
2022-08-20T07:28:14.872Z,100880.75
2022-08-20T07:30:57.009Z,100863.41
2022-08-20T07:33:24.659Z,100841.84
2022-08-20T07:35:50.910Z,100839.63
2022-08-20T07:38:18.523Z,100831.53
2022-08-20T07:40:44.869Z,100838.84
2022-08-20T07:43:11.100Z,100831.66
2022-08-20T07:45:37.839Z,100848.88
2022-08-20T07:48:07.709Z,100858.38
2022-08-20T07:50:34.036Z,100850.28
2022-08-20T07:53:00.278Z,100865.13
2022-08-20T07:55:26.672Z,100868.56
2022-08-20T07:57:52.910Z,100872.97
2022-08-20T08:00:21.051Z,100864.50
2022-08-20T08:02:47.321Z,100859.81
2022-08-20T08:05:13.634Z,100870.59
2022-08-20T08:07:40.160Z,100861.97
2022-08-20T08:10:09.948Z,100874.31
2022-08-20T08:12:37.203Z,100878.69
2022-08-20T08:15:04.034Z,100892.69
2022-08-20T08:17:30.276Z,100875.81
2022-08-20T08:19:56.523Z,100867.41
2022-08-20T08:22:22.753Z,100868.16
2022-08-20T08:24:57.672Z,100856.38
2022-08-20T08:27:24.042Z,100853.16
2022-08-20T08:29:50.285Z,100840.75
2022-08-20T08:32:16.866Z,100840.78
2022-08-20T08:34:43.119Z,100863.00
2022-08-20T08:37:09.353Z,100876.75
2022-08-20T08:39:35.614Z,100857.97
2022-08-20T08:42:01.953Z,100854.19
2022-08-20T08:44:29.988Z,100864.88
2022-08-20T08:46:57.180Z,100830.28
2022-08-20T08:49:24.863Z,100828.75
2022-08-20T08:52:02.205Z,100818.41
2022-08-20T08:54:28.808Z,100767.78
2022-08-20T08:56:55.045Z,100753.19
2022-08-20T08:59:21.397Z,100809.25
2022-08-20T09:01:56.251Z,100825.94
2022-08-20T09:04:23.981Z,100832.19
2022-08-20T09:06:52.265Z,100847.25
2022-08-20T09:09:22.631Z,100838.00
2022-08-20T09:11:50.049Z,100826.50
2022-08-20T09:14:16.297Z,100833.13
2022-08-20T09:16:52.906Z,100842.91
2022-08-20T09:19:19.697Z,100869.13
2022-08-20T09:21:45.949Z,100826.19
2022-08-20T09:24:12.179Z,100810.47
2022-08-20T09:26:39.243Z,100819.91
2022-08-20T09:29:05.603Z,100913.97
2022-08-20T09:31:32.510Z,100918.91
2022-08-20T09:33:59.354Z,100972.16
2022-08-20T09:36:30.669Z,100897.47
2022-08-20T09:38:58.675Z,100775.81
2022-08-20T09:41:24.931Z,100685.75
2022-08-20T09:43:51.174Z,100736.78
2022-08-20T09:46:17.429Z,100720.69
2022-08-20T09:48:43.670Z,100662.03
2022-08-20T09:51:09.918Z,100633.31
2022-08-20T09:53:36.155Z,100726.34
2022-08-20T09:56:02.446Z,100702.66
2022-08-20T09:58:34.177Z,100746.28
2022-08-20T10:01:01.181Z,100638.69
2022-08-20T10:03:27.429Z,100772.09
2022-08-20T10:05:53.677Z,100749.25
2022-08-20T10:08:19.918Z,100832.97
2022-08-20T10:10:46.155Z,100797.63
2022-08-20T10:13:13.270Z,100701.09
2022-08-20T10:15:41.872Z,100577.38
2022-08-20T10:18:08.934Z,100555.56
2022-08-20T10:20:38.580Z,100654.34
2022-08-20T10:23:04.808Z,100874.56
2022-08-20T10:25:31.050Z,100886.84
2022-08-20T10:27:57.403Z,100662.91
2022-08-20T10:30:23.815Z,100618.00
2022-08-20T10:32:50.044Z,100632.91
2022-08-20T10:35:16.310Z,100659.00
2022-08-20T10:37:42.539Z,100707.09
2022-08-20T10:40:09.343Z,100804.09
2022-08-20T10:42:39.202Z,100951.16
2022-08-20T10:45:08.354Z,100926.03
2022-08-20T10:47:34.589Z,100860.31
2022-08-20T10:50:01.229Z,100789.75
2022-08-20T10:52:27.464Z,100818.16
2022-08-20T10:54:53.716Z,100848.13
2022-08-20T10:57:23.961Z,100892.91
2022-08-20T10:59:51.037Z,100962.56
2022-08-20T11:02:17.291Z,100986.53
2022-08-20T11:04:43.618Z,100825.16
2022-08-20T11:07:10.711Z,100742.16
2022-08-20T11:09:36.948Z,100824.41
2022-08-20T11:12:03.532Z,100842.38
2022-08-20T11:14:29.765Z,100677.72
2022-08-20T11:16:56.015Z,100682.34
2022-08-20T11:19:22.250Z,100620.22
2022-08-20T11:21:48.480Z,100676.78
2022-08-20T11:24:14.721Z,100819.75
2022-08-20T11:26:40.971Z,100760.22
2022-08-20T11:29:07.214Z,100667.84
2022-08-20T11:31:33.456Z,100678.53
2022-08-20T11:33:59.695Z,100527.44
2022-08-20T11:36:25.951Z,100685.56
2022-08-20T11:38:52.477Z,100569.22
2022-08-20T11:41:18.713Z,100577.94
2022-08-20T11:43:55.142Z,100663.50
2022-08-20T11:46:28.617Z,100690.22
2022-08-20T11:48:55.024Z,100788.28
2022-08-20T11:51:21.268Z,100594.38
2022-08-20T11:53:47.505Z,100480.16
2022-08-20T11:56:14.518Z,100589.78
2022-08-20T11:58:40.761Z,100708.34
2022-08-20T12:01:07.033Z,100688.22
2022-08-20T12:03:33.270Z,100689.00
2022-08-20T12:05:59.503Z,100733.38
2022-08-20T12:08:27.491Z,100778.47
2022-08-20T12:10:54.637Z,100756.69
2022-08-20T12:13:20.872Z,100766.28
2022-08-20T12:15:54.824Z,100779.59
2022-08-20T12:18:21.104Z,100791.41
2022-08-20T12:20:47.336Z,100800.06
2022-08-20T12:23:17.046Z,100764.13
2022-08-20T12:25:43.420Z,100860.22
2022-08-20T12:28:10.081Z,100902.34
2022-08-20T12:30:36.316Z,100923.47
2022-08-20T12:33:02.554Z,100938.44
2022-08-20T12:35:28.808Z,100953.13
2022-08-20T12:37:57.720Z,100978.41
2022-08-20T12:40:32.146Z,100980.03
2022-08-20T12:42:59.840Z,100980.06
2022-08-20T12:45:26.063Z,100850.66
2022-08-20T12:47:52.308Z,100825.41
2022-08-20T12:50:19.635Z,100779.25
2022-08-20T12:52:45.879Z,100838.28
2022-08-20T12:55:13.232Z,100903.69
2022-08-20T12:57:39.423Z,100904.69
2022-08-20T13:00:07.382Z,100887.31
2022-08-20T13:02:33.748Z,100880.47
2022-08-20T13:05:04.617Z,100789.59
2022-08-20T13:07:31.558Z,100763.00
2022-08-20T13:09:58.218Z,100815.84
2022-08-20T13:12:24.465Z,100983.78
2022-08-20T13:14:50.687Z,100912.16
2022-08-20T13:17:17.000Z,100868.09
2022-08-20T13:19:44.053Z,100846.22
2022-08-20T13:22:10.315Z,100815.63
2022-08-20T13:24:36.562Z,100863.63
2022-08-20T13:27:06.667Z,100905.63
2022-08-20T13:29:32.900Z,100954.97
2022-08-20T13:31:59.135Z,100917.91
2022-08-20T13:34:25.356Z,100757.19
2022-08-20T13:36:51.595Z,100867.84
2022-08-20T13:39:17.868Z,100909.31
2022-08-20T13:41:44.112Z,100909.44
2022-08-20T13:44:10.345Z,100967.75
2022-08-20T13:46:36.579Z,100962.84
2022-08-20T13:49:02.811Z,100929.31
2022-08-20T13:51:30.590Z,100955.34
2022-08-20T13:53:57.009Z,100968.19
2022-08-20T13:56:23.257Z,100976.53
2022-08-20T13:58:49.493Z,100993.41
2022-08-20T14:01:19.412Z,100968.41
2022-08-20T14:03:45.685Z,100947.41
2022-08-20T14:06:12.536Z,100938.75
2022-08-20T14:08:38.770Z,100969.59
2022-08-20T14:11:05.015Z,100970.97
2022-08-20T14:13:31.261Z,100897.47
2022-08-20T14:15:57.527Z,100921.66
2022-08-20T14:18:23.768Z,100918.94
2022-08-20T14:20:50.010Z,100884.63
2022-08-20T14:23:16.250Z,100937.03
2022-08-20T14:25:44.846Z,100854.28
2022-08-20T14:28:14.962Z,100843.63
2022-08-20T14:30:44.561Z,100723.56
2022-08-20T14:33:10.793Z,100740.88
2022-08-20T14:35:37.036Z,100747.66
2022-08-20T14:38:05.301Z,100757.66
2022-08-20T14:40:31.868Z,100697.31
2022-08-20T14:42:58.258Z,100700.22
2022-08-20T14:45:24.737Z,100675.91
2022-08-20T14:47:53.856Z,100643.06
2022-08-20T14:50:24.790Z,100581.94
2022-08-20T14:52:51.301Z,100625.59
2022-08-20T14:55:18.906Z,100726.09
2022-08-20T14:57:45.202Z,100746.22
2022-08-20T15:00:13.833Z,100669.78
2022-08-20T15:02:40.077Z,100665.78
2022-08-20T15:05:07.200Z,100711.16
2022-08-20T15:07:35.231Z,100779.78
2022-08-20T15:10:01.736Z,100831.53
2022-08-20T15:12:28.086Z,100852.50
2022-08-20T15:14:54.324Z,100862.06
2022-08-20T15:17:22.356Z,100837.28
2022-08-20T15:19:48.587Z,100802.47
2022-08-20T15:22:14.890Z,100878.84
2022-08-20T15:24:41.130Z,100861.75
2022-08-20T15:27:21.819Z,100745.63
2022-08-20T15:29:48.877Z,100728.13
2022-08-20T15:32:15.261Z,100767.28
2022-08-20T15:34:41.498Z,100758.72
2022-08-20T15:37:11.500Z,100768.28
2022-08-20T15:39:37.929Z,100806.19
2022-08-20T15:42:04.273Z,100753.97
2022-08-20T15:44:30.514Z,100793.28
2022-08-20T15:46:57.201Z,100804.81
2022-08-20T15:49:23.441Z,100827.25
2022-08-20T15:51:49.687Z,100644.78
2022-08-20T15:54:20.721Z,100658.25
2022-08-20T15:57:05.356Z,100754.75
2022-08-20T15:59:50.331Z,100760.28
2022-08-20T16:02:36.634Z,100716.72
2022-08-20T16:05:09.352Z,100648.13
2022-08-20T16:07:50.365Z,100712.16
2022-08-20T16:10:24.956Z,100708.84
2022-08-20T16:12:51.825Z,100703.00
2022-08-20T16:15:19.759Z,100706.00
2022-08-20T16:17:46.877Z,100722.56
2022-08-20T16:20:18.710Z,100576.41
2022-08-20T16:22:45.200Z,100605.06
2022-08-20T16:25:11.455Z,100638.94
2022-08-20T16:27:56.449Z,100678.69
2022-08-20T16:30:42.951Z,100622.59
2022-08-20T16:33:15.176Z,100665.16
2022-08-20T16:35:44.388Z,100579.94
2022-08-20T16:38:14.240Z,100563.09
2022-08-20T16:40:56.961Z,100577.44
2022-08-20T16:43:25.287Z,100533.78
2022-08-20T16:46:17.973Z,100655.16
2022-08-20T16:48:50.736Z,100633.59
2022-08-20T16:51:17.591Z,100671.13
2022-08-20T16:53:43.820Z,100469.41
2022-08-20T16:56:10.061Z,100542.78
2022-08-20T16:58:36.283Z,100527.56
2022-08-20T17:01:10.176Z,100403.41
2022-08-20T17:03:40.331Z,100525.91
2022-08-20T17:06:25.201Z,100493.28
2022-08-20T17:08:51.449Z,100444.69
2022-08-20T17:11:25.120Z,100475.31
2022-08-20T17:14:01.023Z,100614.66
2022-08-20T17:16:31.205Z,100582.25
2022-08-20T17:18:57.432Z,100441.34
2022-08-20T17:21:23.625Z,100535.81
2022-08-20T17:24:03.882Z,100491.78
2022-08-20T17:26:46.385Z,100504.38
2022-08-20T17:29:15.577Z,100403.06
2022-08-20T17:31:42.852Z,100521.34
2022-08-20T17:34:15.506Z,100591.13
2022-08-20T17:36:55.048Z,100667.50
2022-08-20T17:39:21.551Z,100699.72
2022-08-20T17:41:48.297Z,100579.66
2022-08-20T17:44:21.671Z,100754.66
2022-08-20T17:46:48.017Z,100853.50
2022-08-20T17:49:18.732Z,100694.00
2022-08-20T17:51:49.802Z,100676.44
2022-08-20T17:54:26.564Z,100661.28
2022-08-20T17:56:53.813Z,100876.69
2022-08-20T17:59:59.719Z,100836.69
2022-08-20T18:02:11.083Z,100966.91
2022-08-20T18:04:37.335Z,101005.84
2022-08-20T18:07:08.405Z,100945.31
2022-08-20T18:09:34.592Z,100962.84
2022-08-20T18:12:03.485Z,100918.41
2022-08-20T18:14:38.752Z,100927.03
2022-08-20T18:17:08.685Z,100938.56
2022-08-20T18:19:53.796Z,100845.75
2022-08-20T18:22:20.501Z,100825.28
2022-08-20T18:24:52.428Z,100944.97
2022-08-20T18:27:18.876Z,100891.03
2022-08-20T18:29:46.787Z,100927.59
2022-08-20T18:32:33.014Z,100835.25
2022-08-20T18:35:12.047Z,100907.88
2022-08-20T18:37:38.362Z,100801.22
2022-08-20T18:40:05.983Z,100918.78
2022-08-20T18:42:33.033Z,100896.25
2022-08-20T18:44:59.269Z,100875.63
2022-08-20T18:47:29.597Z,100964.03
2022-08-20T18:49:58.547Z,101034.50
2022-08-20T18:52:25.637Z,100972.59
2022-08-20T18:54:53.613Z,100993.81
2022-08-20T18:57:24.109Z,100946.81
2022-08-20T19:00:10.584Z,100911.19
2022-08-20T19:02:37.327Z,100875.38
2022-08-20T19:05:05.125Z,100850.09
2022-08-20T19:07:48.383Z,100904.72
2022-08-20T19:10:33.810Z,100973.56
2022-08-20T19:13:18.691Z,101016.47
2022-08-20T19:15:45.862Z,101056.78
2022-08-20T19:18:14.560Z,101055.22
2022-08-20T19:20:41.225Z,101056.41
2022-08-20T19:23:09.320Z,100981.28
2022-08-20T19:25:36.749Z,100935.38
2022-08-20T19:28:04.784Z,100916.91
2022-08-20T19:30:38.284Z,100970.72
2022-08-20T19:33:04.705Z,101008.56
2022-08-20T19:35:30.927Z,100976.81
2022-08-20T19:37:57.169Z,101025.84
2022-08-20T19:40:28.220Z,101042.06
2022-08-20T19:42:54.732Z,101044.81
2022-08-20T19:45:26.444Z,101052.09
2022-08-20T19:47:54.356Z,101041.34
2022-08-20T19:50:33.386Z,101096.72
2022-08-20T19:53:17.985Z,101105.94
2022-08-20T19:56:15.967Z,101072.28
2022-08-20T19:58:42.408Z,101042.56
2022-08-20T20:01:10.063Z,101074.81
2022-08-20T20:03:36.410Z,101097.59
2022-08-20T20:06:15.168Z,101129.03
2022-08-20T20:08:54.498Z,101114.91
2022-08-20T20:11:21.294Z,101096.63
2022-08-20T20:13:47.541Z,101074.28
2022-08-20T20:16:13.797Z,101063.88
2022-08-20T20:18:40.803Z,101049.13
2022-08-20T20:21:13.418Z,101056.81
2022-08-20T20:23:46.742Z,101038.75
2022-08-20T20:26:14.934Z,101047.69
2022-08-20T20:28:45.860Z,101045.03
2022-08-20T20:31:13.245Z,101043.63
2022-08-20T20:33:43.976Z,101045.31
2022-08-20T20:36:11.705Z,101067.91
2022-08-20T20:38:38.633Z,101074.28
2022-08-20T20:41:04.971Z,101078.25
2022-08-20T20:43:35.243Z,101087.59
2022-08-20T20:46:02.975Z,101069.94
2022-08-20T20:48:32.875Z,101061.69
2022-08-20T20:51:00.329Z,101074.16
2022-08-20T20:53:48.406Z,101069.41
2022-08-20T20:56:30.341Z,101056.69
2022-08-20T20:58:56.569Z,101059.22
2022-08-20T21:01:27.359Z,101073.72
2022-08-20T21:04:09.239Z,101063.72
2022-08-20T21:06:35.479Z,101064.31
2022-08-20T21:09:01.915Z,101052.91
2022-08-20T21:11:28.174Z,101064.09
2022-08-20T21:13:54.404Z,101054.66
2022-08-20T21:16:20.643Z,101068.56
2022-08-20T21:18:46.872Z,101050.22
2022-08-20T21:21:13.103Z,101066.75
2022-08-20T21:23:41.412Z,101118.03
2022-08-20T21:26:08.344Z,101107.06
2022-08-20T21:28:34.569Z,101141.09
2022-08-20T21:31:00.828Z,101140.28
2022-08-20T21:33:27.086Z,101095.59
2022-08-20T21:35:53.331Z,101109.53
2022-08-20T21:38:19.564Z,101108.75
2022-08-20T21:40:46.199Z,101094.84
2022-08-20T21:43:12.473Z,101091.72
2022-08-20T21:45:38.719Z,101091.94
2022-08-20T21:48:05.047Z,101079.47
2022-08-20T21:50:31.297Z,101072.16
2022-08-20T21:52:59.773Z,101061.22
2022-08-20T21:55:27.017Z,101059.78
2022-08-20T21:57:53.239Z,101042.44
2022-08-20T22:00:20.561Z,101045.16
2022-08-20T22:02:46.976Z,101059.28
2022-08-20T22:05:13.517Z,101032.72
2022-08-20T22:07:40.848Z,101012.09
2022-08-20T22:10:07.319Z,101041.97
2022-08-20T22:12:33.547Z,101041.69
2022-08-20T22:14:59.789Z,101048.84
2022-08-20T22:17:26.009Z,101056.50
2022-08-20T22:19:52.296Z,101023.72
2022-08-20T22:22:18.934Z,101068.78
2022-08-20T22:24:45.296Z,101046.19
2022-08-20T22:27:11.545Z,101054.81
2022-08-20T22:29:37.877Z,101081.59
2022-08-20T22:32:04.287Z,101107.66
2022-08-20T22:34:33.933Z,101105.13
2022-08-20T22:37:00.463Z,101057.34
2022-08-20T22:39:26.701Z,101033.41
2022-08-20T22:41:52.934Z,101064.50
2022-08-20T22:44:19.184Z,101050.78
2022-08-20T22:46:48.870Z,101053.59
2022-08-20T22:49:17.482Z,101038.53
2022-08-20T22:51:43.751Z,100995.63
2022-08-20T22:54:11.463Z,101027.03
2022-08-20T22:56:37.820Z,101020.19
2022-08-20T22:59:04.142Z,100984.53
2022-08-20T23:01:30.438Z,100951.28
2022-08-20T23:03:57.368Z,100934.56
2022-08-20T23:06:23.747Z,100925.69
2022-08-20T23:08:49.997Z,100902.84
2022-08-20T23:11:16.544Z,100903.94
2022-08-20T23:13:42.789Z,100934.78
2022-08-20T23:16:09.021Z,100936.56
2022-08-20T23:18:35.256Z,100911.72
2022-08-20T23:21:01.494Z,100913.44
2022-08-20T23:23:27.748Z,100920.16
2022-08-20T23:25:53.976Z,100903.00
2022-08-20T23:28:20.669Z,100917.44
2022-08-20T23:30:46.967Z,100934.78
2022-08-20T23:33:13.205Z,100956.50
2022-08-20T23:35:39.453Z,100941.69
2022-08-20T23:38:05.684Z,101003.69
2022-08-20T23:40:31.951Z,101002.84
2022-08-20T23:42:58.421Z,101000.81
2022-08-20T23:45:24.841Z,101011.88
2022-08-20T23:47:51.136Z,101005.56
2022-08-20T23:50:18.501Z,101007.44
2022-08-20T23:52:44.737Z,101000.00
2022-08-20T23:55:11.068Z,101033.97
2022-08-20T23:57:38.688Z,101031.88
